< < Back
Terminal Aerodrome Forecast


Current Version              Previous Versions:   1  2  3  4  5  6  7  8  9  

Terminal Aerodrome Forecast

153
FTUS44 KOHX 021731
TAFCSV
TAF
KCSV 021731Z 0218/0318 VRB03KT P6SM SCT050 BKN250
     FM030400 00000KT 5SM BR BKN250
      TEMPO 0309/0313 3SM BR
     FM031400 VRB03KT P6SM SCT250=



Latest METAR

556
SAUS70 KWBC 021900 RRA
MTRCSV
METAR KCSV 021853Z AUTO 00000KT 10SM FEW049 30/17 A3014 RMK AO2 SLP184
T03000172


USA.gov is the U.S. government's official web portal to all federal, state and local government web resources and services.